Leesburg, FL

5:08 AM EST on February 11, 2016 (GMT -0500)
Cypress Creek | | Change Station
CLOSE
Current Station
Personal Weather Station
Location: Leesburg, FL
Elevation: 82 ft
Nearby Weather Stations
Active Advisory: Freeze Warning

Elev 82 ft 28.77 °N, 81.88 °W | Updated 13 seconds ago

Clear
Clear
37.0 °F
Feels Like 37 °F
N
0.0
Wind Variable Wind from North
Gusts 0.0 mph

Today
High -- | Low -- °F
--% Chance of Precip.
Yesterday
High -- | Low -- °F
Precip. -- in
Pressure 30.29 in
Visibility 10.0 miles
Clouds Clear
Windchill 37 °F
Dew Point 28 °F
Humidity 70%
Rainfall 0.00 in
Snow Depth Not available.
7:09 AM 6:14 PM
Waxing Crescent, 11% visible
METAR KLEE 110953Z AUTO 34004KT 10SM CLR 04/02 A3029 RMK AO2 SLP257 T00440017
Pressure 30.29 in
Visibility 10.0 miles
Clouds Clear
Windchill 37 °F
Dew Point 28 °F
Humidity 70%
Rainfall 0.00 in
Snow Depth Not available.
7:09 AM 6:14 PM
Waxing Crescent, 11% visible
METAR KLEE 110953Z AUTO 34004KT 10SM CLR 04/02 A3029 RMK AO2 SLP257 T00440017

10-Day Weather Forecast

Almanac

Astronomy

Feb. 11, 2016 Rise Set
Actual Time
Civil Twilight
Nautical Twilight
Astronomical Twilight
Moon
Length of Visible Light
Length of Day
Tomorrow will be .
, % of the Moon is Illuminated

Today's Extremes

State Highs State Lows

Community

WunderPhotos

Upload Photos

1,892,030 photos uploaded!

WunderBlog® & News

Nearby

Air Quality

  Air Quality AQ Index Pollutant
Not available.

Snow Depth

Station Depth Elevation

Earthquake Activity

City Distance Mag. Time & Date
Minimum magnitude displayed is 2.5.

Coastal Water Temperatures

Place Temperature

Stations

Nearby Weather Stations

Station Location Temp. Windchill Dew Point Humidity Wind Precip. Elev Updated Type
                   

Watches & Warnings

Freeze Warning
Issued: 6:53 PM EST Feb. 10, 2016 – National Weather Service

... Freeze warning remains in effect from 3 am to 9 am EST
Thursday...

* winds... increasing to 20 mph out of the west to northwest with
gusts to around 30 mph.

* Temperature... lows 29 to 32 degrees early Thursday morning.
Freeze durations of 2 to 4 hours are expected.

* Impacts... strong winds this afternoon will create choppy
conditions on Open Lakes and other larger bodies of water
making operation of small boats potentially hazardous.

Appropriate action should be taken to ensure tender vegetation
and outdoor pets have adequate protection from the cold
temperatures tonight.

Precautionary/preparedness actions...

A lake Wind Advisory indicates that winds will cause rough chop
on area lakes. Small boats will be especially prone to capsizing.

A freeze warning means sub-freezing temperatures are imminent or
highly likely. These conditions will kill crops and other
sensitive vegetation.